Metar z połowy godziny Komunikat METAR ze strony awiacja.imgw.pl Metar G30 EPKT METAR EPKT 172030Z VRB02KT CAVOK 11/09 Q1021 =